createdAt,value
2023-05-17T00:02:56.670Z,10.71
2023-05-17T00:05:59.084Z,10.91
2023-05-17T00:09:01.628Z,10.82
2023-05-17T00:12:04.248Z,10.76
2023-05-17T00:15:07.294Z,10.62
2023-05-17T00:18:09.849Z,10.70
2023-05-17T00:21:12.353Z,10.63
2023-05-17T00:24:14.804Z,10.62
2023-05-17T00:27:17.311Z,10.71
2023-05-17T00:30:20.530Z,10.78
2023-05-17T00:33:23.196Z,10.85
2023-05-17T00:36:25.923Z,10.74
2023-05-17T00:39:28.288Z,10.62
2023-05-17T00:42:31.003Z,10.66
2023-05-17T00:45:33.556Z,10.62
2023-05-17T00:48:36.154Z,10.60
2023-05-17T00:51:38.720Z,10.64
2023-05-17T00:54:41.302Z,10.63
2023-05-17T00:57:43.682Z,10.61
2023-05-17T01:00:46.528Z,10.56
2023-05-17T01:03:50.262Z,10.65
2023-05-17T01:06:52.923Z,10.49
2023-05-17T01:09:55.534Z,10.44
2023-05-17T01:13:23.943Z,10.36
2023-05-17T01:16:30.978Z,10.42
2023-05-17T01:19:45.497Z,10.35
2023-05-17T01:23:06.324Z,10.33
2023-05-17T01:26:19.241Z,10.39
2023-05-17T01:29:27.745Z,10.31
2023-05-17T01:32:31.033Z,10.29
2023-05-17T01:35:33.507Z,10.17
2023-05-17T01:38:36.019Z,10.09
2023-05-17T01:41:42.469Z,9.99
2023-05-17T01:44:51.139Z,9.98
2023-05-17T01:48:15.072Z,9.98
2023-05-17T01:51:20.437Z,9.88
2023-05-17T01:54:28.951Z,9.94
2023-05-17T01:57:34.730Z,9.81
2023-05-17T02:00:37.214Z,9.79
2023-05-17T02:03:39.722Z,9.80
2023-05-17T02:06:42.125Z,9.78
2023-05-17T02:09:44.499Z,9.71
2023-05-17T02:12:46.970Z,9.77
2023-05-17T02:15:49.465Z,9.27
2023-05-17T02:18:52.002Z,9.76
2023-05-17T02:21:54.359Z,9.76
2023-05-17T02:24:58.232Z,9.78
2023-05-17T02:28:00.734Z,9.73
2023-05-17T02:31:03.515Z,9.83
2023-05-17T02:34:05.989Z,9.87
2023-05-17T02:37:08.508Z,9.79
2023-05-17T02:40:12.745Z,9.82
2023-05-17T02:43:15.279Z,9.92
2023-05-17T02:46:17.678Z,9.92
2023-05-17T02:49:20.103Z,9.88
2023-05-17T02:52:22.702Z,9.85
2023-05-17T02:55:25.261Z,9.88
2023-05-17T02:58:28.006Z,9.89
2023-05-17T03:01:30.959Z,9.86
2023-05-17T03:04:34.148Z,9.92
2023-05-17T03:07:37.147Z,9.92
2023-05-17T03:10:39.588Z,9.96
2023-05-17T03:13:43.728Z,9.75
2023-05-17T03:16:47.656Z,9.87
2023-05-17T03:19:50.296Z,9.81
2023-05-17T03:22:52.887Z,9.80
2023-05-17T03:25:55.482Z,9.84
2023-05-17T03:28:58.009Z,9.85
2023-05-17T03:32:01.127Z,9.81
2023-05-17T03:35:03.920Z,9.92
2023-05-17T03:38:06.382Z,9.80
2023-05-17T03:41:09.136Z,9.64
2023-05-17T03:44:11.657Z,9.35
2023-05-17T03:47:14.105Z,9.45
2023-05-17T03:50:16.698Z,9.65
2023-05-17T03:53:19.088Z,9.66
2023-05-17T03:56:21.545Z,9.58
2023-05-17T03:59:23.971Z,9.71
2023-05-17T04:02:26.573Z,9.75
2023-05-17T04:05:29.313Z,9.79
2023-05-17T04:08:31.979Z,9.80
2023-05-17T04:11:34.780Z,9.64
2023-05-17T04:14:38.796Z,9.74
2023-05-17T04:17:41.397Z,9.77
2023-05-17T04:20:44.545Z,9.68
2023-05-17T04:23:46.952Z,9.70
2023-05-17T04:26:51.085Z,9.65
2023-05-17T04:29:56.553Z,9.75
2023-05-17T04:32:59.224Z,9.75
2023-05-17T04:36:02.781Z,9.63
2023-05-17T04:39:07.366Z,10.00
2023-05-17T04:42:10.223Z,10.14
2023-05-17T04:45:21.869Z,10.20
2023-05-17T04:48:26.482Z,10.25
2023-05-17T04:51:32.904Z,10.34
2023-05-17T04:54:36.818Z,10.50
2023-05-17T04:57:40.043Z,10.45
2023-05-17T05:00:43.848Z,10.35
2023-05-17T05:03:47.168Z,10.30
2023-05-17T05:06:49.736Z,10.20
2023-05-17T05:09:53.277Z,9.88
2023-05-17T05:12:58.343Z,9.91
2023-05-17T05:16:01.398Z,10.14
2023-05-17T05:19:05.149Z,10.12
2023-05-17T05:22:08.425Z,10.25
2023-05-17T05:25:12.621Z,10.41
2023-05-17T05:28:15.193Z,10.41
2023-05-17T05:31:18.238Z,9.87
2023-05-17T05:34:28.593Z,10.64
2023-05-17T05:37:31.296Z,10.71
2023-05-17T05:40:33.911Z,10.77
2023-05-17T05:43:37.991Z,11.04
2023-05-17T05:46:41.885Z,10.79
2023-05-17T05:49:44.595Z,10.86
2023-05-17T05:52:47.648Z,11.07
2023-05-17T05:55:50.479Z,11.12
2023-05-17T05:58:53.842Z,11.05
2023-05-17T06:01:56.421Z,11.13
2023-05-17T06:04:58.808Z,11.34
2023-05-17T06:08:01.307Z,11.70
2023-05-17T06:11:04.015Z,12.15
2023-05-17T06:14:06.356Z,12.42
2023-05-17T06:17:08.779Z,12.57
2023-05-17T06:20:12.015Z,12.53
2023-05-17T06:23:14.758Z,12.67
2023-05-17T06:26:17.268Z,12.64
2023-05-17T06:29:19.641Z,12.69
2023-05-17T06:32:22.114Z,12.98
2023-05-17T06:35:24.531Z,13.13
2023-05-17T06:38:27.050Z,13.36
2023-05-17T06:41:29.508Z,13.30
2023-05-17T06:44:32.186Z,13.40
2023-05-17T06:47:34.689Z,13.32
2023-05-17T06:50:37.190Z,13.07
2023-05-17T06:53:39.723Z,12.89
2023-05-17T06:56:43.494Z,12.60
2023-05-17T06:59:45.807Z,12.70
2023-05-17T07:02:48.535Z,12.55
2023-05-17T07:05:50.939Z,12.31
2023-05-17T07:08:53.580Z,12.27
2023-05-17T07:11:56.220Z,12.32
2023-05-17T07:14:58.634Z,12.23
2023-05-17T07:18:01.282Z,12.37
2023-05-17T07:21:03.797Z,12.37
2023-05-17T07:24:06.383Z,12.52
2023-05-17T07:27:08.729Z,12.34
2023-05-17T07:30:11.918Z,12.55
2023-05-17T07:33:14.385Z,12.56
2023-05-17T07:36:19.614Z,12.60
2023-05-17T07:39:21.984Z,12.83
2023-05-17T07:42:24.413Z,12.74
2023-05-17T07:45:26.928Z,12.62
2023-05-17T07:48:29.731Z,12.85
2023-05-17T07:51:32.238Z,12.81
2023-05-17T07:54:34.947Z,13.02
2023-05-17T07:57:37.474Z,13.13
2023-05-17T08:00:41.269Z,13.13
2023-05-17T08:03:48.272Z,13.19
2023-05-17T08:06:51.193Z,13.14
2023-05-17T08:09:53.759Z,13.16
2023-05-17T08:12:56.320Z,13.68
2023-05-17T08:16:12.898Z,14.11
2023-05-17T08:19:17.579Z,14.42
2023-05-17T08:22:20.174Z,14.33
2023-05-17T08:25:22.656Z,14.36
2023-05-17T08:28:25.151Z,14.60
2023-05-17T08:31:27.597Z,14.61
2023-05-17T08:34:30.043Z,14.64
2023-05-17T08:37:32.982Z,14.35
2023-05-17T08:40:35.551Z,14.49
2023-05-17T08:43:38.085Z,14.23
2023-05-17T08:46:41.576Z,14.07
2023-05-17T08:49:46.368Z,14.06
2023-05-17T08:52:51.439Z,14.40
2023-05-17T08:56:04.141Z,14.45
2023-05-17T08:59:07.265Z,14.78
2023-05-17T09:02:11.324Z,14.50
2023-05-17T09:05:14.504Z,14.68
2023-05-17T09:08:18.030Z,14.72
2023-05-17T09:11:27.044Z,15.11
2023-05-17T09:14:35.893Z,15.12
2023-05-17T09:17:38.550Z,15.24
2023-05-17T09:20:42.170Z,15.70
2023-05-17T09:23:54.254Z,15.80
2023-05-17T09:27:05.943Z,15.49
2023-05-17T09:30:11.767Z,15.53
2023-05-17T09:33:16.645Z,15.35
2023-05-17T09:36:23.190Z,15.11
2023-05-17T09:39:26.110Z,15.28
2023-05-17T09:42:28.613Z,14.89
2023-05-17T09:45:36.385Z,14.46
2023-05-17T09:48:39.609Z,14.85
2023-05-17T09:51:44.518Z,14.95
2023-05-17T09:54:54.152Z,15.03
2023-05-17T09:58:03.965Z,14.79
2023-05-17T10:01:08.750Z,14.90
2023-05-17T10:04:14.993Z,14.82
2023-05-17T10:07:21.592Z,15.13
2023-05-17T10:10:24.287Z,15.34
2023-05-17T10:13:33.704Z,15.46
2023-05-17T10:16:36.859Z,15.22
2023-05-17T10:19:39.813Z,15.31
2023-05-17T10:22:42.609Z,15.31
2023-05-17T10:25:45.703Z,15.36
2023-05-17T10:28:51.300Z,15.31
2023-05-17T10:31:53.786Z,15.76
2023-05-17T10:35:06.527Z,16.43
2023-05-17T10:38:13.770Z,16.57
2023-05-17T10:41:17.633Z,15.86
2023-05-17T10:44:20.291Z,15.46
2023-05-17T10:47:23.327Z,15.46
2023-05-17T10:50:27.624Z,15.59
2023-05-17T10:53:30.070Z,15.43
2023-05-17T10:56:33.295Z,15.37
2023-05-17T10:59:36.070Z,15.53
2023-05-17T11:02:41.350Z,15.93
2023-05-17T11:05:46.092Z,15.75
2023-05-17T11:09:16.890Z,15.97
2023-05-17T11:12:31.421Z,16.05
2023-05-17T11:15:36.371Z,16.00
2023-05-17T11:18:56.311Z,16.13
2023-05-17T11:21:59.915Z,16.32
2023-05-17T11:25:02.548Z,16.92
2023-05-17T11:28:20.618Z,16.47
2023-05-17T11:31:31.197Z,16.40
2023-05-17T11:34:34.749Z,16.33
2023-05-17T11:37:37.283Z,16.67
2023-05-17T11:40:40.133Z,16.61
2023-05-17T11:43:46.385Z,16.69
2023-05-17T11:46:48.814Z,16.54
2023-05-17T11:49:54.321Z,15.91
2023-05-17T11:53:00.371Z,15.89
2023-05-17T11:56:04.843Z,16.18
2023-05-17T11:59:07.099Z,16.15
2023-05-17T12:02:10.209Z,17.10
2023-05-17T12:05:12.872Z,16.92
2023-05-17T12:08:19.332Z,16.30
2023-05-17T12:11:22.190Z,15.79
2023-05-17T12:14:24.904Z,15.58
2023-05-17T12:17:33.535Z,16.04
2023-05-17T12:20:38.160Z,16.45
2023-05-17T12:23:46.917Z,16.33
2023-05-17T12:26:50.798Z,16.17
2023-05-17T12:29:54.327Z,16.00
2023-05-17T12:32:56.889Z,15.86
2023-05-17T12:35:59.731Z,15.73
2023-05-17T12:39:02.558Z,15.89
2023-05-17T12:42:05.125Z,15.62
2023-05-17T12:45:08.000Z,15.78
2023-05-17T12:48:10.593Z,15.62
2023-05-17T12:51:16.625Z,15.55
2023-05-17T12:54:24.825Z,15.94
2023-05-17T12:57:27.323Z,15.85
2023-05-17T13:00:29.917Z,15.86
2023-05-17T13:03:32.816Z,15.88
2023-05-17T13:06:51.759Z,15.93
2023-05-17T13:09:54.203Z,16.28
2023-05-17T13:12:58.645Z,16.25
2023-05-17T13:16:00.974Z,15.98
2023-05-17T13:19:03.901Z,16.08
2023-05-17T13:22:07.210Z,16.06
2023-05-17T13:25:09.892Z,16.26
2023-05-17T13:28:12.322Z,16.39
2023-05-17T13:31:14.715Z,16.53
2023-05-17T13:34:17.113Z,16.38
2023-05-17T13:37:21.247Z,16.43
2023-05-17T13:40:23.845Z,16.21
2023-05-17T13:43:26.211Z,16.32
2023-05-17T13:46:28.603Z,16.38
2023-05-17T13:49:31.184Z,16.35
2023-05-17T13:52:33.760Z,16.33
2023-05-17T13:55:36.131Z,16.16
2023-05-17T13:58:39.259Z,16.22
2023-05-17T14:01:42.135Z,16.16
2023-05-17T14:04:44.674Z,16.16
2023-05-17T14:07:47.287Z,16.09
2023-05-17T14:10:49.802Z,16.20
2023-05-17T14:13:52.191Z,16.05
2023-05-17T14:16:55.458Z,16.19
2023-05-17T14:19:57.961Z,15.98
2023-05-17T14:23:01.186Z,15.90
2023-05-17T14:26:07.280Z,16.34
2023-05-17T14:29:09.869Z,16.54
2023-05-17T14:32:14.179Z,16.23
2023-05-17T14:35:19.334Z,16.00
2023-05-17T14:38:23.207Z,16.25
2023-05-17T14:41:25.707Z,16.19
2023-05-17T14:44:28.145Z,16.28
2023-05-17T14:47:30.700Z,16.09
2023-05-17T14:50:34.696Z,15.91
2023-05-17T14:53:37.812Z,15.57
2023-05-17T14:56:40.195Z,15.57
2023-05-17T14:59:45.343Z,15.41
2023-05-17T15:02:48.057Z,15.36
2023-05-17T15:06:02.056Z,15.25
2023-05-17T15:09:05.824Z,14.96
2023-05-17T15:19:24.959Z,14.75
2023-05-17T15:22:27.377Z,14.50
2023-05-17T15:25:30.323Z,14.28
2023-05-17T15:28:32.969Z,14.22
2023-05-17T15:31:35.292Z,14.09
2023-05-17T15:34:37.820Z,14.07
2023-05-17T15:37:40.273Z,14.01
2023-05-17T15:40:43.717Z,13.86
2023-05-17T15:43:46.114Z,13.91
2023-05-17T15:46:48.879Z,13.88
2023-05-17T15:49:51.283Z,13.58
2023-05-17T15:52:54.096Z,13.57
2023-05-17T15:55:56.993Z,13.44
2023-05-17T15:59:02.443Z,13.19
2023-05-17T16:02:05.353Z,13.07
2023-05-17T16:05:08.627Z,12.76
2023-05-17T16:08:12.410Z,12.64
2023-05-17T16:11:14.814Z,12.43
2023-05-17T16:14:18.096Z,12.34
2023-05-17T16:17:20.653Z,12.51
2023-05-17T16:20:23.037Z,12.53
2023-05-17T16:23:26.975Z,12.53
2023-05-17T16:26:30.103Z,12.26
2023-05-17T16:29:33.388Z,12.48
2023-05-17T16:32:36.023Z,12.05
2023-05-17T16:35:38.644Z,12.14
2023-05-17T16:38:41.359Z,11.90
2023-05-17T16:41:43.796Z,11.84
2023-05-17T16:44:46.260Z,11.70
2023-05-17T16:47:48.726Z,11.59
2023-05-17T16:50:51.538Z,11.55
2023-05-17T16:53:55.449Z,11.29
2023-05-17T16:56:57.920Z,11.29
2023-05-17T17:00:03.018Z,11.35
2023-05-17T17:03:09.008Z,11.11
2023-05-17T17:06:12.091Z,11.27
2023-05-17T17:09:15.209Z,11.09
2023-05-17T17:12:24.809Z,10.99
2023-05-17T17:15:28.987Z,10.78
2023-05-17T17:18:31.564Z,10.80
2023-05-17T17:21:36.668Z,10.77
2023-05-17T17:24:39.782Z,10.60
2023-05-17T17:27:42.301Z,10.39
2023-05-17T17:30:44.686Z,10.37
2023-05-17T17:33:47.180Z,10.40
2023-05-17T17:36:49.622Z,10.25
2023-05-17T17:39:52.055Z,10.16
2023-05-17T17:42:54.496Z,10.12
2023-05-17T17:45:56.902Z,10.01
2023-05-17T17:48:59.264Z,10.03
2023-05-17T17:52:01.820Z,9.94
2023-05-17T17:55:04.466Z,9.80
2023-05-17T17:58:07.185Z,9.80
2023-05-17T18:01:09.605Z,9.80
2023-05-17T18:04:13.732Z,9.66
2023-05-17T18:07:18.531Z,9.62
2023-05-17T18:10:21.032Z,9.48
2023-05-17T18:13:23.658Z,9.38
2023-05-17T18:16:26.085Z,9.27
2023-05-17T18:19:28.536Z,9.37
2023-05-17T18:22:30.896Z,9.18
2023-05-17T18:25:33.297Z,8.97
2023-05-17T18:28:55.570Z,8.96
2023-05-17T18:31:59.973Z,8.79
2023-05-17T18:35:02.480Z,8.72
2023-05-17T18:38:05.569Z,8.69
2023-05-17T18:41:07.855Z,8.59
2023-05-17T18:44:10.269Z,8.60
2023-05-17T18:47:12.846Z,8.54
2023-05-17T18:50:15.196Z,8.57
2023-05-17T18:53:17.609Z,8.47
2023-05-17T18:56:22.941Z,8.41
2023-05-17T18:59:25.222Z,8.35
2023-05-17T19:02:27.589Z,8.20
2023-05-17T19:05:30.041Z,8.17
2023-05-17T19:08:33.315Z,8.21
2023-05-17T19:11:35.571Z,8.15
2023-05-17T19:14:38.697Z,8.07
2023-05-17T19:17:41.165Z,8.08
2023-05-17T19:20:43.450Z,8.00
2023-05-17T19:23:45.836Z,7.89
2023-05-17T19:26:48.143Z,7.91
2023-05-17T19:29:50.494Z,7.80
2023-05-17T19:32:52.935Z,7.81
2023-05-17T19:35:55.253Z,7.79
2023-05-17T19:38:57.674Z,7.71
2023-05-17T19:41:59.979Z,7.65
2023-05-17T19:45:02.286Z,7.55
2023-05-17T19:48:07.520Z,7.62
2023-05-17T19:51:09.907Z,7.57
2023-05-17T19:54:12.221Z,7.57
2023-05-17T19:57:14.428Z,7.51
2023-05-17T20:00:17.944Z,7.32
2023-05-17T20:03:20.597Z,7.47
2023-05-17T20:06:23.091Z,7.40
2023-05-17T20:09:30.246Z,7.31
2023-05-17T20:12:32.573Z,7.25
2023-05-17T20:15:35.545Z,7.25
2023-05-17T20:18:38.670Z,7.19
2023-05-17T20:21:42.244Z,7.17
2023-05-17T20:24:44.762Z,7.18
2023-05-17T20:27:47.484Z,7.07
2023-05-17T20:30:49.869Z,7.00
2023-05-17T20:33:53.110Z,7.11
2023-05-17T20:36:58.631Z,7.13
2023-05-17T20:40:01.024Z,7.05
2023-05-17T20:43:04.681Z,6.97
2023-05-17T20:46:07.445Z,7.06
2023-05-17T20:49:09.924Z,6.97
2023-05-17T20:52:13.455Z,6.90
2023-05-17T20:55:16.445Z,6.85
2023-05-17T20:58:18.683Z,6.90
2023-05-17T21:01:21.573Z,6.86
2023-05-17T21:04:23.785Z,6.91
2023-05-17T21:07:26.688Z,6.83
2023-05-17T21:10:29.677Z,6.82
2023-05-17T21:13:32.280Z,7.00
2023-05-17T21:16:35.901Z,6.89
2023-05-17T21:19:38.184Z,6.81
2023-05-17T21:22:40.623Z,6.72
2023-05-17T21:25:42.974Z,6.79
2023-05-17T21:28:45.445Z,6.77
2023-05-17T21:31:47.834Z,6.68
2023-05-17T21:34:52.150Z,6.62
2023-05-17T21:37:55.916Z,6.66
2023-05-17T21:40:58.276Z,6.61
2023-05-17T21:44:00.561Z,6.60
2023-05-17T21:47:02.973Z,6.62
2023-05-17T21:50:05.661Z,6.67
2023-05-17T21:53:07.904Z,6.65
2023-05-17T21:56:10.158Z,6.59
2023-05-17T21:59:12.482Z,6.57
2023-05-17T22:02:14.995Z,6.56
2023-05-17T22:05:17.276Z,6.51
2023-05-17T22:08:19.611Z,6.50
2023-05-17T22:11:23.176Z,6.53
2023-05-17T22:14:33.315Z,6.57
2023-05-17T22:17:48.034Z,6.43
2023-05-17T22:20:55.371Z,6.41
2023-05-17T22:23:57.694Z,6.43
2023-05-17T22:27:00.047Z,6.45
2023-05-17T22:30:02.275Z,6.39
2023-05-17T22:33:04.614Z,6.34
2023-05-17T22:36:07.125Z,6.39
2023-05-17T22:39:09.974Z,6.31
2023-05-17T22:42:12.356Z,6.22
2023-05-17T22:45:14.736Z,6.06
2023-05-17T22:48:17.011Z,5.87
2023-05-17T22:51:19.864Z,5.72
2023-05-17T22:54:22.399Z,5.70
2023-05-17T22:57:24.748Z,5.59
2023-05-17T23:00:27.191Z,5.47
2023-05-17T23:03:29.451Z,5.62
2023-05-17T23:06:34.180Z,5.74
2023-05-17T23:09:40.691Z,5.55
2023-05-17T23:12:43.247Z,5.73
2023-05-17T23:15:46.849Z,5.35
2023-05-17T23:18:49.587Z,5.32
2023-05-17T23:21:51.930Z,5.18
2023-05-17T23:24:55.854Z,5.28
2023-05-17T23:27:58.338Z,5.46
2023-05-17T23:31:01.632Z,5.33
2023-05-17T23:34:04.146Z,5.29
2023-05-17T23:37:06.699Z,5.40
2023-05-17T23:40:12.476Z,5.33
2023-05-17T23:43:14.924Z,5.38
2023-05-17T23:46:19.923Z,5.39
2023-05-17T23:49:25.327Z,5.40
2023-05-17T23:52:32.715Z,5.32
2023-05-17T23:55:35.289Z,5.41
2023-05-17T23:58:37.648Z,5.56
